Archival Weather

Chicago O'Hare International

Chicago, Illinois (KORD)

Report from: Thursday, December 29, 2022 8:51 PM CST
Current time: Friday, June 21, 2024 3:52 AM CDT

Current weather – Weather history – Daily summaries
Weather forecast

Temperature13.3°C (55.9°F)
Dew point11.1°C (52.0°F)
Winds 16 kts (8.2 m/s, 18.4 mph) South (190°)
Wind gusts 29 kts (14.9 m/s, 33.4 mph)
Peak wind 29 kts (14.9 m/s, 33.4 mph) South (180°) at 02:44
Visibility10 mi. (16.1 km)
Clouds Ceiling: Overcast 1,000 ft. (305 m)
Altimeter29.84 in.Hg (1010 mB)
Relative humidity87 %
Density altitude74 ft. (23 m)
Sea-level pressure101.1 kPa (1011 mB, 29.84 in.Hg)
Remarks System requires maintenance
Automated weather observing station with precipitation discriminator
Pressure rising more slowly
Flight conditions Marginal Visual Meteorological Conditions
Raw dataKORD 300251Z 19016G29KT 10SM OVC010 13/11 A2984 RMK AO2 PK WND 18029/0244 SLP106 T01330111 51008 $
An error has occurred. This application may no longer respond until reloaded. Reload 🗙